Time;durP1;ratioP1;P1;durP2;ratioP2;P2;SDS_P1;SDS_P2;PMS_P1;PMS_P2;Temp;Humidity;BMP_temperature;BMP_pressure;BME280_temperature;BME280_humidity;BME280_pressure;Samples;Min_cycle;Max_cycle;Signal;HPM_P1;HPM_P2
2024/04/25 00:01:00;;;;;;;18.98;5.63;;;;;;;;;;5541010;26;20064;-46
2024/04/25 00:03:27;;;;;;;17.20;6.28;;;;;;;;;;5541265;26;20203;-38
2024/04/25 00:05:53;;;;;;;15.52;5.82;;;;;;;;;;5541047;26;20233;-42
2024/04/25 00:08:20;;;;;;;14.60;5.45;;;;;;;;;;5539526;26;20004;-46
2024/04/25 00:10:50;;;;;;;14.00;5.32;;;;;;;;;;5539508;26;19997;-40
2024/04/25 00:13:17;;;;;;;16.45;5.30;;;;;;;;;;5540178;26;19989;-38
2024/04/25 00:15:44;;;;;;;21.00;6.00;;;;;;;;;;5540792;26;19982;-43
2024/04/25 00:18:10;;;;;;;19.17;5.80;;;;;;;;;;5540721;26;20251;-43
2024/04/25 00:20:37;;;;;;;19.55;5.68;;;;;;;;;;5540701;26;19998;-39
2024/04/25 00:23:03;;;;;;;19.38;6.40;;;;;;;;;;5540535;26;19982;-45
2024/04/25 00:25:30;;;;;;;15.40;5.40;;;;;;;;;;5540759;26;19989;-44
2024/04/25 00:27:58;;;;;;;17.55;5.07;;;;;;;;;;5539917;26;19989;-43
2024/04/25 00:30:25;;;;;;;24.17;5.30;;;;;;;;;;5538774;26;20001;-39
2024/04/25 00:32:52;;;;;;;18.23;5.60;;;;;;;;;;5539604;26;20000;-40
2024/04/25 00:35:18;;;;;;;30.48;6.70;;;;;;;;;;5540359;26;19986;-39
2024/04/25 00:37:45;;;;;;;18.55;5.63;;;;;;;;;;5540643;26;20143;-40
2024/04/25 00:40:12;;;;;;;17.15;5.75;;;;;;;;;;5540549;26;20094;-41
2024/04/25 00:42:38;;;;;;;15.13;5.05;;;;;;;;;;5540580;26;19989;-40
2024/04/25 00:45:05;;;;;;;25.17;5.85;;;;;;;;;;5538588;26;20045;-42
2024/04/25 00:47:32;;;;;;;16.98;5.53;;;;;;;;;;5540136;26;19989;-40
2024/04/25 00:49:59;;;;;;;11.50;4.85;;;;;;;;;;5539935;26;20034;-40
2024/04/25 00:52:26;;;;;;;16.63;5.10;;;;;;;;;;5540373;26;19981;-40
2024/04/25 00:54:53;;;;;;;13.00;5.18;;;;;;;;;;5540383;26;20007;-43
2024/04/25 00:57:20;;;;;;;17.77;5.60;;;;;;;;;;5540311;26;20194;-41
2024/04/25 00:59:51;;;;;;;14.30;4.93;;;;;;;;;;5540085;26;20000;-47
2024/04/25 01:02:18;;;;;;;14.32;4.78;;;;;;;;;;5539959;26;19985;-50
2024/04/25 01:04:46;;;;;;;13.98;4.53;;;;;;;;;;5540029;26;20005;-43
2024/04/25 01:07:13;;;;;;;14.30;5.15;;;;;;;;;;5540206;26;19992;-43
2024/04/25 01:09:39;;;;;;;11.80;4.90;;;;;;;;;;5540122;26;19996;-42
2024/04/25 01:12:06;;;;;;;14.85;5.85;;;;;;;;;;5540109;26;19993;-43
2024/04/25 01:14:32;;;;;;;13.18;4.40;;;;;;;;;;5540191;26;19989;-50
2024/04/25 01:16:59;;;;;;;14.77;4.88;;;;;;;;;;5539769;26;19985;-44
2024/04/25 01:19:26;;;;;;;12.70;4.80;;;;;;;;;;5539875;26;19989;-38
2024/04/25 01:21:52;;;;;;;18.48;5.38;;;;;;;;;;5540248;26;20001;-42
2024/04/25 01:24:24;;;;;;;15.77;5.03;;;;;;;;;;5540031;26;19996;-39
2024/04/25 01:26:51;;;;;;;15.18;6.70;;;;;;;;;;5538618;26;20102;-39
2024/04/25 01:29:18;;;;;;;13.25;4.82;;;;;;;;;;5536500;25;19997;-43
2024/04/25 01:31:45;;;;;;;13.82;5.13;;;;;;;;;;5537760;26;20005;-39
2024/04/25 01:34:13;;;;;;;11.88;4.63;;;;;;;;;;5538603;26;20005;-42
2024/04/25 01:36:42;;;;;;;11.02;4.50;;;;;;;;;;5528657;26;20592;-40
2024/04/25 01:39:10;;;;;;;13.73;4.80;;;;;;;;;;5528825;26;19997;-41
2024/04/25 01:41:37;;;;;;;15.63;5.03;;;;;;;;;;5539107;26;19997;-48
2024/04/25 01:44:04;;;;;;;14.50;4.82;;;;;;;;;;5536629;26;20005;-41
2024/04/25 01:46:31;;;;;;;14.50;4.90;;;;;;;;;;5521025;26;20079;-46
2024/04/25 01:48:59;;;;;;;15.40;6.80;;;;;;;;;;5539143;26;19989;-38
2024/04/25 01:51:28;;;;;;;22.83;10.45;;;;;;;;;;5539448;26;19996;-42
2024/04/25 01:53:55;;;;;;;17.58;6.05;;;;;;;;;;5539495;26;20191;-39
2024/04/25 01:56:21;;;;;;;16.27;5.55;;;;;;;;;;5540993;26;20034;-41
2024/04/25 01:58:48;;;;;;;18.88;7.22;;;;;;;;;;5532247;26;19993;-53
2024/04/25 02:01:15;;;;;;;16.48;5.38;;;;;;;;;;5539484;26;19990;-40
2024/04/25 02:03:42;;;;;;;14.65;5.32;;;;;;;;;;5529627;26;20001;-44
2024/04/25 02:06:09;;;;;;;13.88;5.22;;;;;;;;;;5540448;26;19989;-50
2024/04/25 02:08:35;;;;;;;13.23;4.90;;;;;;;;;;5479021;26;20002;-41
2024/04/25 02:11:02;;;;;;;14.23;5.07;;;;;;;;;;5486645;26;20002;-40
2024/04/25 02:13:28;;;;;;;16.02;5.55;;;;;;;;;;5493362;26;20001;-40
2024/04/25 02:15:55;;;;;;;14.82;4.70;;;;;;;;;;5488946;26;20055;-44
2024/04/25 02:18:21;;;;;;;15.10;5.00;;;;;;;;;;5491255;26;19989;-41
2024/04/25 02:26:18;;;;;;;15.60;6.00;;;;;;;;;;5503273;26;19997;-41
2024/04/25 02:28:44;;;;;;;14.75;5.35;;;;;;;;;;5501875;26;19997;-40
2024/04/25 02:31:13;;;;;;;22.25;5.85;;;;;;;;;;5502067;26;20047;-40
2024/04/25 02:33:40;;;;;;;19.63;6.07;;;;;;;;;;5488583;26;19995;-41
2024/04/25 02:36:07;;;;;;;15.57;5.80;;;;;;;;;;5457767;26;19999;-45
2024/04/25 02:38:33;;;;;;;19.52;6.38;;;;;;;;;;5457173;26;19987;-41
2024/04/25 02:41:00;;;;;;;20.25;6.28;;;;;;;;;;5542446;26;20046;-38
2024/04/25 02:43:27;;;;;;;15.30;6.22;;;;;;;;;;5544170;25;20014;-43
2024/04/25 02:45:53;;;;;;;15.35;6.38;;;;;;;;;;5525706;25;19998;-38
2024/04/25 02:48:20;;;;;;;14.27;5.90;;;;;;;;;;5541318;26;20009;-38
2024/04/25 02:50:46;;;;;;;13.10;5.05;;;;;;;;;;5541651;26;19989;-40
2024/04/25 02:53:13;;;;;;;15.35;5.53;;;;;;;;;;5541957;26;20021;-40
2024/04/25 02:55:41;;;;;;;18.48;5.78;;;;;;;;;;5541329;26;20090;-42
2024/04/25 02:58:07;;;;;;;12.80;5.68;;;;;;;;;;5542085;26;19982;-51
2024/04/25 03:00:34;;;;;;;13.13;5.65;;;;;;;;;;5540943;26;20042;-45
2024/04/25 03:03:00;;;;;;;13.10;4.95;;;;;;;;;;5535797;26;19981;-45
2024/04/25 03:05:27;;;;;;;18.70;5.60;;;;;;;;;;5541742;26;19986;-41
2024/04/25 03:07:53;;;;;;;13.88;5.15;;;;;;;;;;5541046;26;19981;-44
2024/04/25 03:10:20;;;;;;;17.27;5.60;;;;;;;;;;5540886;26;19990;-42
2024/04/25 03:12:47;;;;;;;12.15;5.70;;;;;;;;;;5542028;26;19986;-49
2024/04/25 03:15:13;;;;;;;14.43;5.85;;;;;;;;;;5515089;26;19994;-45
2024/04/25 03:17:40;;;;;;;14.63;5.55;;;;;;;;;;5539277;26;19985;-40
2024/04/25 03:20:07;;;;;;;16.02;5.40;;;;;;;;;;5541868;26;19997;-42
2024/04/25 03:22:33;;;;;;;17.58;6.00;;;;;;;;;;5541839;26;19986;-49
2024/04/25 03:25:00;;;;;;;19.33;6.10;;;;;;;;;;5541880;26;19988;-47
2024/04/25 03:27:26;;;;;;;17.08;5.70;;;;;;;;;;5541883;26;19990;-42
2024/04/25 03:29:57;;;;;;;14.23;5.68;;;;;;;;;;5541640;26;19981;-41
2024/04/25 03:32:24;;;;;;;15.43;5.72;;;;;;;;;;5541718;26;19989;-40
2024/04/25 03:34:51;;;;;;;16.58;6.25;;;;;;;;;;5541685;26;19985;-41
2024/04/25 03:37:17;;;;;;;13.05;5.60;;;;;;;;;;5541669;26;20101;-45
2024/04/25 03:39:44;;;;;;;17.25;6.20;;;;;;;;;;5541485;26;20134;-42
2024/04/25 03:42:11;;;;;;;16.33;6.72;;;;;;;;;;5541652;26;20093;-50
2024/04/25 03:44:37;;;;;;;15.13;5.80;;;;;;;;;;5541385;26;19981;-44
2024/04/25 03:47:04;;;;;;;17.77;6.13;;;;;;;;;;5541643;26;19987;-41
2024/04/25 03:49:30;;;;;;;19.50;6.80;;;;;;;;;;5541351;26;19989;-44
2024/04/25 03:51:59;;;;;;;16.13;6.05;;;;;;;;;;5541351;26;19993;-44
2024/04/25 03:54:26;;;;;;;19.80;5.90;;;;;;;;;;5541266;26;20045;-47
2024/04/25 03:56:52;;;;;;;12.18;5.55;;;;;;;;;;5541471;26;20005;-43
2024/04/25 03:59:19;;;;;;;19.65;6.60;;;;;;;;;;5541279;26;20222;-46
2024/04/25 04:01:46;;;;;;;15.13;6.20;;;;;;;;;;5541420;26;19996;-44
2024/04/25 04:04:12;;;;;;;17.27;6.20;;;;;;;;;;5541419;26;20136;-41
2024/04/25 04:06:39;;;;;;;15.27;6.20;;;;;;;;;;5541033;26;20210;-49
2024/04/25 04:09:05;;;;;;;15.52;5.85;;;;;;;;;;5541205;26;20091;-42
2024/04/25 04:11:32;;;;;;;17.00;6.32;;;;;;;;;;5541154;26;20194;-47
2024/04/25 04:13:58;;;;;;;19.98;7.03;;;;;;;;;;5541120;26;19996;-44
2024/04/25 04:16:25;;;;;;;23.30;6.60;;;;;;;;;;5541460;26;19999;-48
2024/04/25 04:18:51;;;;;;;14.48;6.20;;;;;;;;;;5539595;26;20005;-42
2024/04/25 04:21:18;;;;;;;17.23;6.53;;;;;;;;;;5541083;26;20018;-42
2024/04/25 04:23:45;;;;;;;14.30;5.80;;;;;;;;;;5541068;26;20351;-45
2024/04/25 04:26:11;;;;;;;18.33;6.22;;;;;;;;;;5541070;26;19989;-52
2024/04/25 04:28:38;;;;;;;17.70;6.97;;;;;;;;;;5540856;26;20000;-41
2024/04/25 04:31:04;;;;;;;18.63;7.20;;;;;;;;;;5540709;26;20014;-47
2024/04/25 04:33:34;;;;;;;20.23;6.85;;;;;;;;;;5535677;25;20204;-41
2024/04/25 04:36:04;;;;;;;19.85;6.65;;;;;;;;;;5520197;26;19994;-41
2024/04/25 04:38:35;;;;;;;22.20;6.75;;;;;;;;;;5503912;26;20040;-41
2024/04/25 04:41:01;;;;;;;18.17;7.18;;;;;;;;;;5503614;26;19986;-41
2024/04/25 04:43:28;;;;;;;15.48;6.50;;;;;;;;;;5503650;26;19986;-44
2024/04/25 04:45:57;;;;;;;19.75;7.00;;;;;;;;;;5503692;26;19982;-42
2024/04/25 04:48:24;;;;;;;18.77;7.10;;;;;;;;;;5503659;26;19999;-42
2024/04/25 04:50:51;;;;;;;17.85;6.65;;;;;;;;;;5503527;26;19986;-48
2024/04/25 04:53:17;;;;;;;18.65;7.40;;;;;;;;;;5503937;26;19986;-49
2024/04/25 04:55:44;;;;;;;19.65;6.95;;;;;;;;;;5503568;26;19982;-44
2024/04/25 04:58:10;;;;;;;17.33;6.85;;;;;;;;;;5503558;26;19986;-43
2024/04/25 05:00:37;;;;;;;17.70;7.13;;;;;;;;;;5503521;26;19990;-42
2024/04/25 05:03:06;;;;;;;21.60;6.72;;;;;;;;;;5503565;26;19982;-41
2024/04/25 05:05:32;;;;;;;19.45;7.15;;;;;;;;;;5503246;26;19986;-41
2024/04/25 05:07:59;;;;;;;16.20;6.88;;;;;;;;;;5503489;26;19982;-40
2024/04/25 05:10:25;;;;;;;20.42;7.28;;;;;;;;;;5503244;26;19986;-44
2024/04/25 05:12:55;;;;;;;20.50;7.35;;;;;;;;;;5503425;26;20005;-42
2024/04/25 05:15:22;;;;;;;20.63;6.95;;;;;;;;;;5503299;26;19996;-48
2024/04/25 05:17:49;;;;;;;16.20;6.93;;;;;;;;;;5503280;26;20026;-41
2024/04/25 05:20:15;;;;;;;19.60;7.05;;;;;;;;;;5503169;26;19992;-43
2024/04/25 05:22:42;;;;;;;16.70;7.18;;;;;;;;;;5503145;26;20026;-41
2024/04/25 05:25:08;;;;;;;24.33;7.70;;;;;;;;;;5503040;26;20044;-44
2024/04/25 05:27:36;;;;;;;26.00;8.27;;;;;;;;;;5502960;26;19997;-43
2024/04/25 05:30:06;;;;;;;27.05;9.07;;;;;;;;;;5502221;26;20195;-41
2024/04/25 05:32:33;;;;;;;20.30;7.97;;;;;;;;;;5503063;26;19993;-41
2024/04/25 05:35:02;;;;;;;19.55;7.97;;;;;;;;;;5502945;26;20112;-44
2024/04/25 05:37:28;;;;;;;27.83;9.48;;;;;;;;;;5503261;26;19986;-41
2024/04/25 05:39:55;;;;;;;23.27;8.38;;;;;;;;;;5502705;26;20022;-40
2024/04/25 05:42:21;;;;;;;22.55;8.45;;;;;;;;;;5502884;26;20044;-44
2024/04/25 05:44:49;;;;;;;31.73;9.20;;;;;;;;;;5502552;26;19986;-44
2024/04/25 05:47:18;;;;;;;24.08;9.20;;;;;;;;;;5502874;26;20043;-44
2024/04/25 05:49:49;;;;;;;23.10;8.48;;;;;;;;;;5502462;26;19990;-44
2024/04/25 05:52:16;;;;;;;22.02;8.73;;;;;;;;;;5502732;26;19978;-40
2024/04/25 05:54:42;;;;;;;23.75;8.52;;;;;;;;;;5502339;26;19986;-44
2024/04/25 05:57:09;;;;;;;26.02;9.13;;;;;;;;;;5502621;26;19982;-42
2024/04/25 05:59:36;;;;;;;27.80;8.48;;;;;;;;;;5502532;26;19990;-50
2024/04/25 06:02:02;;;;;;;24.15;9.50;;;;;;;;;;5502556;26;19989;-44
2024/04/25 06:04:33;;;;;;;26.77;8.38;;;;;;;;;;5504907;26;20092;-42
2024/04/25 06:07:00;;;;;;;26.25;8.93;;;;;;;;;;5539364;26;20005;-42
2024/04/25 06:09:26;;;;;;;22.73;8.38;;;;;;;;;;5539069;26;20001;-40
2024/04/25 06:11:53;;;;;;;22.35;8.20;;;;;;;;;;5539372;26;19997;-42
2024/04/25 06:14:21;;;;;;;24.45;8.43;;;;;;;;;;5539218;26;20034;-43
2024/04/25 06:16:48;;;;;;;21.75;8.27;;;;;;;;;;5539270;26;19993;-43
2024/04/25 06:19:15;;;;;;;25.20;7.85;;;;;;;;;;5538934;26;20103;-44
2024/04/25 06:21:42;;;;;;;21.25;8.55;;;;;;;;;;5539154;26;19985;-44
2024/04/25 06:24:09;;;;;;;22.23;9.30;;;;;;;;;;5539092;26;19990;-41
2024/04/25 06:26:35;;;;;;;24.70;8.80;;;;;;;;;;5538682;26;19985;-42
2024/04/25 06:29:02;;;;;;;22.20;8.60;;;;;;;;;;5538903;26;20000;-47
2024/04/25 06:31:29;;;;;;;21.73;9.02;;;;;;;;;;5538676;26;20001;-44
2024/04/25 06:34:04;;;;;;;22.65;9.05;;;;;;;;;;5538868;26;20017;-42
2024/04/25 06:36:32;;;;;;;21.00;8.45;;;;;;;;;;5538686;26;20042;-43
2024/04/25 06:38:59;;;;;;;22.05;8.20;;;;;;;;;;5538669;26;20122;-41
2024/04/25 06:41:26;;;;;;;27.38;8.65;;;;;;;;;;5538623;26;19981;-41
2024/04/25 06:43:52;;;;;;;23.77;8.45;;;;;;;;;;5542601;26;20152;-47
2024/04/25 06:46:19;;;;;;;23.67;9.43;;;;;;;;;;5542474;26;19990;-44
2024/04/25 06:48:46;;;;;;;29.77;10.05;;;;;;;;;;5542044;26;20050;-43
2024/04/25 06:51:18;;;;;;;24.95;9.23;;;;;;;;;;5542357;26;19990;-43
2024/04/25 06:53:44;;;;;;;27.15;9.13;;;;;;;;;;5542386;26;20119;-46
2024/04/25 06:56:11;;;;;;;27.35;9.38;;;;;;;;;;5542036;26;19988;-45
2024/04/25 06:58:38;;;;;;;26.25;9.68;;;;;;;;;;5542325;26;20121;-42
2024/04/25 07:01:05;;;;;;;24.77;9.70;;;;;;;;;;5542227;26;20131;-46
2024/04/25 07:03:32;;;;;;;26.80;8.88;;;;;;;;;;5541409;26;20202;-41
2024/04/25 07:05:58;;;;;;;27.23;9.20;;;;;;;;;;5542160;26;19993;-45
2024/04/25 07:08:25;;;;;;;25.38;8.35;;;;;;;;;;5541997;26;19989;-49
2024/04/25 07:10:52;;;;;;;26.80;9.18;;;;;;;;;;5541909;26;20099;-41
2024/04/25 07:13:18;;;;;;;25.88;8.88;;;;;;;;;;5542038;26;19989;-42
2024/04/25 07:15:45;;;;;;;28.05;8.93;;;;;;;;;;5541913;26;20038;-42
2024/04/25 07:18:12;;;;;;;25.02;9.05;;;;;;;;;;5532597;25;19986;-40
2024/04/25 07:20:39;;;;;;;27.30;9.45;;;;;;;;;;5521205;26;19997;-39
2024/04/25 07:23:05;;;;;;;29.02;9.90;;;;;;;;;;5505027;26;19982;-40
2024/04/25 07:25:32;;;;;;;23.30;8.60;;;;;;;;;;5504771;26;20047;-42
2024/04/25 07:27:59;;;;;;;19.33;8.82;;;;;;;;;;5504871;26;20084;-41
2024/04/25 07:30:25;;;;;;;26.05;9.20;;;;;;;;;;5504584;26;20095;-40
2024/04/25 07:32:52;;;;;;;23.33;9.25;;;;;;;;;;5504775;26;20099;-41
2024/04/25 07:35:18;;;;;;;24.08;9.30;;;;;;;;;;5504692;26;19986;-44
2024/04/25 07:37:45;;;;;;;26.58;9.38;;;;;;;;;;5504807;26;19982;-48
2024/04/25 07:40:11;;;;;;;28.15;9.95;;;;;;;;;;5504496;26;19986;-42
2024/04/25 07:42:38;;;;;;;27.50;9.45;;;;;;;;;;5504501;26;19993;-44
2024/04/25 07:45:05;;;;;;;24.88;9.27;;;;;;;;;;5482581;26;20023;-41
2024/04/25 07:47:31;;;;;;;24.98;9.23;;;;;;;;;;5497782;26;19982;-48
2024/04/25 07:49:58;;;;;;;34.30;9.70;;;;;;;;;;5504138;26;20011;-47
2024/04/25 07:52:28;;;;;;;23.75;9.45;;;;;;;;;;5504454;26;20194;-43
2024/04/25 07:54:54;;;;;;;22.27;9.07;;;;;;;;;;5504469;26;19994;-46
2024/04/25 07:57:21;;;;;;;30.08;9.13;;;;;;;;;;5504327;26;19993;-41
2024/04/25 07:59:47;;;;;;;29.85;9.50;;;;;;;;;;5504783;26;19994;-43
2024/04/25 08:02:14;;;;;;;22.85;9.25;;;;;;;;;;5504468;26;19997;-41
2024/04/25 08:04:40;;;;;;;25.98;9.50;;;;;;;;;;5504357;26;19998;-42
2024/04/25 08:07:08;;;;;;;23.60;9.50;;;;;;;;;;5504639;26;20123;-41
2024/04/25 08:09:34;;;;;;;28.23;9.73;;;;;;;;;;5504119;26;19997;-42
2024/04/25 08:12:01;;;;;;;26.42;9.70;;;;;;;;;;5504090;26;19996;-41
2024/04/25 08:14:28;;;;;;;27.92;9.55;;;;;;;;;;5504469;26;19994;-42
2024/04/25 08:16:54;;;;;;;27.42;9.70;;;;;;;;;;5504436;26;19986;-41
2024/04/25 08:19:21;;;;;;;26.17;9.95;;;;;;;;;;5503966;26;19986;-46
2024/04/25 08:21:48;;;;;;;27.88;9.48;;;;;;;;;;5503242;26;20095;-40
2024/04/25 08:24:15;;;;;;;26.98;9.73;;;;;;;;;;5504111;26;19993;-43
2024/04/25 08:26:42;;;;;;;27.48;9.48;;;;;;;;;;5503692;26;19978;-45
2024/04/25 08:29:10;;;;;;;29.02;9.73;;;;;;;;;;5503936;26;20048;-42
2024/04/25 08:31:36;;;;;;;26.48;9.50;;;;;;;;;;5503986;26;19986;-41
2024/04/25 08:34:03;;;;;;;23.10;9.13;;;;;;;;;;5503885;26;19986;-45
2024/04/25 08:36:30;;;;;;;28.48;10.02;;;;;;;;;;5503794;26;20001;-45
2024/04/25 08:38:56;;;;;;;27.05;9.45;;;;;;;;;;5503844;26;19993;-46
2024/04/25 08:41:23;;;;;;;26.25;9.68;;;;;;;;;;5503586;26;19982;-43
2024/04/25 08:43:49;;;;;;;25.25;9.35;;;;;;;;;;5503890;26;20087;-46
2024/04/25 08:46:17;;;;;;;24.42;8.70;;;;;;;;;;5503742;26;20010;-43
2024/04/25 08:48:47;;;;;;;23.10;9.48;;;;;;;;;;5503510;26;20018;-47
2024/04/25 08:51:18;;;;;;;23.42;9.48;;;;;;;;;;5503710;26;20094;-50
2024/04/25 08:53:45;;;;;;;25.52;9.82;;;;;;;;;;5503670;26;19986;-53
2024/04/25 08:56:12;;;;;;;27.40;9.68;;;;;;;;;;5503458;26;19986;-41
2024/04/25 08:58:39;;;;;;;21.35;8.73;;;;;;;;;;5503600;26;19998;-42
2024/04/25 09:01:07;;;;;;;22.63;8.90;;;;;;;;;;5503649;26;19996;-42
2024/04/25 09:03:34;;;;;;;23.52;9.35;;;;;;;;;;5503281;26;20102;-43
2024/04/25 09:06:01;;;;;;;24.80;9.30;;;;;;;;;;5502423;26;19988;-45
2024/04/25 09:08:29;;;;;;;27.60;9.52;;;;;;;;;;5503419;26;19986;-42
2024/04/25 09:10:56;;;;;;;20.95;9.43;;;;;;;;;;5503170;26;20195;-41
2024/04/25 09:13:22;;;;;;;25.35;10.65;;;;;;;;;;5503423;26;19997;-46
2024/04/25 09:15:49;;;;;;;19.88;9.68;;;;;;;;;;5503200;26;19986;-45
2024/04/25 09:18:15;;;;;;;27.33;9.93;;;;;;;;;;5503183;26;19997;-44
2024/04/25 09:20:42;;;;;;;26.20;9.60;;;;;;;;;;5503187;26;20243;-45
2024/04/25 09:23:09;;;;;;;21.50;9.60;;;;;;;;;;5503283;26;20123;-41
2024/04/25 09:25:36;;;;;;;25.50;10.93;;;;;;;;;;5502884;26;19997;-41
2024/04/25 09:28:03;;;;;;;25.30;10.23;;;;;;;;;;5503173;26;20121;-42
2024/04/25 09:30:31;;;;;;;23.55;9.80;;;;;;;;;;5503012;26;20108;-45
2024/04/25 09:32:57;;;;;;;25.48;10.20;;;;;;;;;;5502911;26;19987;-42
2024/04/25 09:35:24;;;;;;;22.65;10.38;;;;;;;;;;5502918;26;19989;-46
2024/04/25 09:37:50;;;;;;;27.30;9.55;;;;;;;;;;5503043;26;19994;-41
2024/04/25 09:40:17;;;;;;;25.83;10.13;;;;;;;;;;5502492;26;19983;-42
2024/04/25 09:42:45;;;;;;;23.65;10.35;;;;;;;;;;5503227;26;19987;-43
2024/04/25 09:45:15;;;;;;;25.80;10.40;;;;;;;;;;5502971;26;19994;-48
2024/04/25 09:47:46;;;;;;;25.83;10.77;;;;;;;;;;5502593;26;19986;-42
2024/04/25 09:50:16;;;;;;;27.03;10.63;;;;;;;;;;5502747;26;20151;-46
2024/04/25 09:52:49;;;;;;;26.15;10.70;;;;;;;;;;5502722;26;20562;-46
2024/04/25 09:55:17;;;;;;;;;;;;;;;;;;5503099;26;20206;-42
2024/04/25 09:57:47;;;;;;;29.08;12.35;;;;;;;;;;5502617;26;19952;-41
2024/04/25 10:00:14;;;;;;;27.38;11.32;;;;;;;;;;5502451;26;19986;-44
2024/04/25 10:02:42;;;;;;;30.45;11.57;;;;;;;;;;5502563;26;20265;-44
2024/04/25 10:05:09;;;;;;;32.17;11.48;;;;;;;;;;5502399;26;20015;-50
2024/04/25 10:07:36;;;;;;;22.92;9.95;;;;;;;;;;5502446;26;20091;-41
2024/04/25 10:10:03;;;;;;;28.75;10.40;;;;;;;;;;5502196;26;19998;-50
2024/04/25 10:12:32;;;;;;;24.15;9.85;;;;;;;;;;5502371;26;19986;-40
2024/04/25 10:15:02;;;;;;;27.05;9.55;;;;;;;;;;5502065;26;19990;-42
2024/04/25 10:17:34;;;;;;;26.55;10.80;;;;;;;;;;5503920;26;20074;-44
2024/04/25 10:20:03;;;;;;;23.95;9.48;;;;;;;;;;5505832;26;20082;-43
2024/04/25 10:22:30;;;;;;;27.60;9.75;;;;;;;;;;5505997;26;20191;-42
2024/04/25 10:25:03;;;;;;;27.40;10.23;;;;;;;;;;5536176;26;20044;-42
2024/04/25 10:27:30;;;;;;;24.20;9.20;;;;;;;;;;5542753;26;19985;-44
2024/04/25 10:30:09;;;;;;;24.30;9.80;;;;;;;;;;5542410;26;19985;-41
2024/04/25 10:32:35;;;;;;;22.30;9.32;;;;;;;;;;5542748;26;20031;-42
2024/04/25 10:35:02;;;;;;;28.10;10.15;;;;;;;;;;5542274;26;20143;-40
2024/04/25 10:37:29;;;;;;;24.25;9.60;;;;;;;;;;5542677;26;19993;-43
2024/04/25 10:39:59;;;;;;;26.02;9.85;;;;;;;;;;5542265;26;20049;-49
2024/04/25 10:42:25;;;;;;;32.40;9.80;;;;;;;;;;5542360;26;20083;-39
2024/04/25 10:44:55;;;;;;;28.40;10.38;;;;;;;;;;5542512;26;19985;-42
2024/04/25 10:47:22;;;;;;;55.05;12.85;;;;;;;;;;5542589;26;19985;-48
2024/04/25 10:49:49;;;;;;;34.08;10.57;;;;;;;;;;5542145;26;20047;-40
2024/04/25 10:52:15;;;;;;;26.88;10.95;;;;;;;;;;5542205;26;19993;-41
2024/04/25 10:54:42;;;;;;;28.52;10.20;;;;;;;;;;5542609;26;19997;-40
2024/04/25 10:57:08;;;;;;;31.52;11.10;;;;;;;;;;5542363;26;19981;-41
2024/04/25 10:59:35;;;;;;;27.70;10.05;;;;;;;;;;5542236;26;19992;-45
2024/04/25 11:02:03;;;;;;;23.63;10.52;;;;;;;;;;5544642;25;20048;-41
2024/04/25 11:04:32;;;;;;;27.48;11.05;;;;;;;;;;5548140;25;20047;-51
2024/04/25 11:06:59;;;;;;;28.50;10.20;;;;;;;;;;5537549;25;19996;-40
2024/04/25 11:09:29;;;;;;;24.60;10.45;;;;;;;;;;5541608;26;20005;-45
2024/04/25 11:11:56;;;;;;;28.27;11.10;;;;;;;;;;5541643;26;19996;-41
2024/04/25 11:14:22;;;;;;;27.88;12.38;;;;;;;;;;5541501;26;20041;-40
2024/04/25 11:16:49;;;;;;;27.10;13.18;;;;;;;;;;5541807;26;19997;-42
2024/04/25 11:19:18;;;;;;;29.98;10.77;;;;;;;;;;5540909;26;20119;-43
2024/04/25 11:21:46;;;;;;;28.95;10.43;;;;;;;;;;5541217;26;19992;-45
2024/04/25 11:24:16;;;;;;;23.73;10.70;;;;;;;;;;5537856;26;20021;-42
2024/04/25 11:26:45;;;;;;;35.70;11.50;;;;;;;;;;5514329;26;20006;-39
2024/04/25 11:29:12;;;;;;;25.88;10.38;;;;;;;;;;5539292;26;19986;-45
2024/04/25 11:31:39;;;;;;;28.05;9.00;;;;;;;;;;5541660;26;19985;-41
2024/04/25 11:34:06;;;;;;;23.70;9.75;;;;;;;;;;5541661;26;19977;-37
2024/04/25 11:36:32;;;;;;;26.73;9.80;;;;;;;;;;5541840;26;19986;-40
2024/04/25 11:39:02;;;;;;;27.23;9.80;;;;;;;;;;5541584;26;20194;-46
2024/04/25 11:41:29;;;;;;;25.25;9.43;;;;;;;;;;5541745;26;20018;-42
2024/04/25 11:43:55;;;;;;;26.65;10.18;;;;;;;;;;5541626;26;19986;-46
2024/04/25 11:46:22;;;;;;;24.23;8.85;;;;;;;;;;5541213;26;19990;-48
2024/04/25 11:48:53;;;;;;;22.65;8.90;;;;;;;;;;5538143;26;20001;-47
2024/04/25 11:51:20;;;;;;;27.38;10.63;;;;;;;;;;5537852;26;20017;-46
2024/04/25 11:53:46;;;;;;;26.10;9.50;;;;;;;;;;5537918;26;19993;-48
2024/04/25 11:56:13;;;;;;;25.42;9.63;;;;;;;;;;5538357;26;19989;-42
2024/04/25 11:58:39;;;;;;;27.45;10.43;;;;;;;;;;5538846;26;19989;-42
2024/04/25 12:01:06;;;;;;;27.65;10.55;;;;;;;;;;5538241;26;19997;-43
2024/04/25 12:03:33;;;;;;;31.95;10.55;;;;;;;;;;5540059;26;19995;-42
2024/04/25 12:05:59;;;;;;;31.80;10.98;;;;;;;;;;5541631;26;20191;-43
2024/04/25 12:08:26;;;;;;;27.05;10.95;;;;;;;;;;5541384;26;19985;-45
2024/04/25 12:10:53;;;;;;;31.27;10.77;;;;;;;;;;5541795;26;19996;-52
2024/04/25 12:13:19;;;;;;;27.17;10.68;;;;;;;;;;5541732;26;20045;-52
2024/04/25 12:15:46;;;;;;;31.67;10.88;;;;;;;;;;5542196;26;19986;-46
2024/04/25 12:18:12;;;;;;;29.27;10.73;;;;;;;;;;5541202;26;19996;-46
2024/04/25 12:20:39;;;;;;;28.75;10.30;;;;;;;;;;5538835;26;20001;-47
2024/04/25 12:23:07;;;;;;;27.48;9.43;;;;;;;;;;5538608;26;19992;-46
2024/04/25 12:25:34;;;;;;;24.55;10.38;;;;;;;;;;5537992;26;19998;-47
2024/04/25 12:28:01;;;;;;;26.02;10.02;;;;;;;;;;5536411;26;19985;-45
2024/04/25 12:30:29;;;;;;;31.38;10.73;;;;;;;;;;5540928;26;20090;-47
2024/04/25 12:32:56;;;;;;;35.45;10.35;;;;;;;;;;5540650;26;20136;-46
2024/04/25 12:35:23;;;;;;;31.38;11.32;;;;;;;;;;5540510;26;20205;-42
2024/04/25 12:37:51;;;;;;;26.75;11.77;;;;;;;;;;5540497;26;20000;-50
2024/04/25 12:40:17;;;;;;;32.45;12.80;;;;;;;;;;5537634;26;20000;-48
2024/04/25 12:42:44;;;;;;;37.25;11.73;;;;;;;;;;5526782;26;19993;-41
2024/04/25 12:45:13;;;;;;;40.75;15.95;;;;;;;;;;5540283;26;19992;-44
2024/04/25 12:47:41;;;;;;;36.53;15.00;;;;;;;;;;5540227;26;19994;-41
2024/04/25 12:50:08;;;;;;;35.42;13.43;;;;;;;;;;5540174;26;20017;-45
2024/04/25 12:52:35;;;;;;;31.27;12.20;;;;;;;;;;5540408;26;19998;-43
2024/04/25 12:55:01;;;;;;;31.77;10.27;;;;;;;;;;5540198;26;20003;-49
2024/04/25 12:57:28;;;;;;;34.08;11.60;;;;;;;;;;5540291;26;20004;-44
2024/04/25 12:59:54;;;;;;;24.92;10.57;;;;;;;;;;5540646;26;20197;-42
2024/04/25 13:02:21;;;;;;;26.83;9.15;;;;;;;;;;5541045;26;19993;-43
2024/04/25 13:04:48;;;;;;;26.75;9.95;;;;;;;;;;5540774;26;20123;-41
2024/04/25 13:07:14;;;;;;;29.13;10.50;;;;;;;;;;5540668;26;20085;-41
2024/04/25 13:09:41;;;;;;;26.75;9.30;;;;;;;;;;5508569;26;20135;-48
2024/04/25 13:12:07;;;;;;;28.75;9.40;;;;;;;;;;5541018;26;20271;-51
2024/04/25 13:14:34;;;;;;;26.60;10.18;;;;;;;;;;5539853;26;20045;-50
2024/04/25 13:17:01;;;;;;;25.08;9.35;;;;;;;;;;5539947;26;19982;-47
2024/04/25 13:19:27;;;;;;;27.98;9.73;;;;;;;;;;5541195;26;19989;-47
2024/04/25 13:21:54;;;;;;;36.25;10.15;;;;;;;;;;5540812;26;20005;-44
2024/04/25 13:24:20;;;;;;;28.13;9.07;;;;;;;;;;5540394;26;19981;-48
2024/04/25 13:26:47;;;;;;;26.02;9.10;;;;;;;;;;5540662;26;19989;-46
2024/04/25 13:29:14;;;;;;;27.00;9.20;;;;;;;;;;5540656;26;20177;-44
2024/04/25 13:31:40;;;;;;;24.23;9.35;;;;;;;;;;5541162;26;20044;-49
2024/04/25 13:34:08;;;;;;;27.20;9.63;;;;;;;;;;5539685;26;19992;-42
2024/04/25 13:36:34;;;;;;;25.67;9.43;;;;;;;;;;5537074;26;20192;-47
2024/04/25 13:39:01;;;;;;;27.77;9.30;;;;;;;;;;5536875;26;20098;-45
2024/04/25 13:41:28;;;;;;;25.90;9.05;;;;;;;;;;5536742;26;20198;-44
2024/04/25 13:43:54;;;;;;;27.67;8.70;;;;;;;;;;5536855;26;19981;-47
2024/04/25 13:46:21;;;;;;;21.70;8.32;;;;;;;;;;5536850;26;20111;-45
2024/04/25 13:48:53;;;;;;;27.58;9.13;;;;;;;;;;5536768;26;20222;-43
2024/04/25 13:51:19;;;;;;;23.67;8.90;;;;;;;;;;5541994;26;20009;-49
2024/04/25 13:53:46;;;;;;;27.73;8.98;;;;;;;;;;5544517;26;19988;-42
2024/04/25 13:56:13;;;;;;;20.73;8.60;;;;;;;;;;5543739;26;19989;-44
2024/04/25 13:58:39;;;;;;;22.33;8.73;;;;;;;;;;5543708;26;20000;-43
2024/04/25 14:01:10;;;;;;;22.30;8.57;;;;;;;;;;5543164;26;19988;-50
2024/04/25 14:03:37;;;;;;;27.83;9.20;;;;;;;;;;5541168;26;20041;-46
2024/04/25 14:06:04;;;;;;;24.90;9.32;;;;;;;;;;5543258;26;20170;-47
2024/04/25 14:08:31;;;;;;;20.45;8.32;;;;;;;;;;5541203;26;20005;-42
2024/04/25 14:10:59;;;;;;;26.15;8.98;;;;;;;;;;5543991;26;19992;-42
2024/04/25 14:13:26;;;;;;;22.27;8.75;;;;;;;;;;5544400;26;20185;-44
2024/04/25 14:15:52;;;;;;;22.27;8.73;;;;;;;;;;5544068;26;19985;-42
2024/04/25 14:18:24;;;;;;;25.55;9.45;;;;;;;;;;5541245;26;19981;-43
2024/04/25 14:20:51;;;;;;;20.65;9.10;;;;;;;;;;5539946;26;19997;-49
2024/04/25 14:23:17;;;;;;;21.90;9.02;;;;;;;;;;5539895;26;19990;-46
2024/04/25 14:28:44;;;;;;;21.52;8.65;;;;;;;;;;5540023;26;20000;-48
2024/04/25 14:31:11;;;;;;;28.55;9.77;;;;;;;;;;5539859;26;20022;-51
2024/04/25 14:33:37;;;;;;;25.73;9.20;;;;;;;;;;5541712;26;20047;-51
2024/04/25 14:36:04;;;;;;;26.13;9.35;;;;;;;;;;5543115;26;20083;-45